Аэропорт: Могилёв. Могилёв

ICAO: UMOO

METAR:
2022-06-26 11:00:00
UMOO 261100Z 05003MPS 9999 SCT040 29/17 Q1023 NOSIG
METAR:
2022-06-26 08:01:00
TAF UMOO 260801Z 2609/2618 VRB02MPS 9999 SCT030 TEMPO 2609/2618 09003G08MPS BKN030